Time;durP1;ratioP1;P1;durP2;ratioP2;P2;SDS_P1;SDS_P2;PMS_P1;PMS_P2;Temp;Humidity;BMP_temperature;BMP_pressure;BME280_temperature;BME280_humidity;BME280_pressure;Samples;Min_cycle;Max_cycle;Signal;HPM_P1;HPM_P2
2021/08/03 00:01:59;;;;;;;;;;;;;;;35.00;19.08;99181.50;5107788;28;19916;-51
2021/08/03 00:04:24;;;;;;;;;;;;;;;35.03;19.39;99180.75;5100348;28;19922;-51
2021/08/03 00:06:53;;;;;;;;;;;;;;;35.57;18.70;99183.16;5100369;28;19977;-50
2021/08/03 00:09:18;;;;;;;;;;;;;;;34.93;19.68;99180.66;5107898;28;19912;-51
2021/08/03 00:11:44;;;;;;;;;;;;;;;35.02;19.77;99186.66;5095535;28;20294;-51
2021/08/03 00:14:09;;;;;;;;;;;;;;;34.80;20.36;99186.44;5104814;28;19912;-49
2021/08/03 00:16:35;;;;;;;;;;;;;;;35.38;19.86;99184.19;5101680;28;19911;-50
2021/08/03 00:19:00;;;;;;;;;;;;;;;35.20;19.90;99179.31;5098148;28;20395;-48
2021/08/03 00:21:25;;;;;;;;;;;;;;;34.97;20.51;99184.25;5108331;28;19926;-48
2021/08/03 00:23:51;;;;;;;;;;;;;;;34.74;20.51;99193.50;5095443;28;19991;-47
2021/08/03 00:26:16;;;;;;;;;;;;;;;34.98;20.65;99196.91;5104442;28;19976;-49
2021/08/03 00:28:46;;;;;;;;;;;;;;;34.52;21.17;99189.72;5102499;28;19923;-47
2021/08/03 00:31:12;;;;;;;;;;;;;;;33.95;22.29;99183.47;5097086;28;19947;-49
2021/08/03 00:33:38;;;;;;;;;;;;;;;34.17;22.30;99190.88;5106458;28;20003;-48
2021/08/03 00:36:03;;;;;;;;;;;;;;;34.93;21.52;99189.72;5097006;28;20411;-47
2021/08/03 00:38:29;;;;;;;;;;;;;;;34.71;21.91;99188.75;5102826;28;20033;-49
2021/08/03 00:40:55;;;;;;;;;;;;;;;33.95;23.06;99183.47;5104129;28;19923;-48
2021/08/03 00:43:20;;;;;;;;;;;;;;;34.40;22.79;99187.19;5102772;28;19934;-50
2021/08/03 00:45:46;;;;;;;;;;;;;;;34.73;22.83;99182.81;5108520;28;20249;-48
2021/08/03 00:48:11;;;;;;;;;;;;;;;34.64;22.73;99185.88;5097884;28;19919;-51
2021/08/03 00:50:36;;;;;;;;;;;;;;;33.63;23.89;99183.81;5101530;28;19947;-48
2021/08/03 00:53:02;;;;;;;;;;;;;;;33.88;23.70;99193.25;5105076;28;19959;-48
2021/08/03 00:55:27;;;;;;;;;;;;;;;34.18;23.35;99183.41;5093338;28;19977;-47
2021/08/03 00:57:52;;;;;;;;;;;;;;;34.49;23.28;99182.16;5107494;28;19988;-49
2021/08/03 01:00:17;;;;;;;;;;;;;;;33.80;24.18;99183.28;5097106;28;20359;-51
2021/08/03 01:02:43;;;;;;;;;;;;;;;33.46;24.32;99185.94;5100258;28;19916;-49
2021/08/03 01:05:08;;;;;;;;;;;;;;;33.71;24.38;99193.81;5105704;28;19919;-48
2021/08/03 01:07:44;;;;;;;;;;;;;;;34.21;23.95;99188.94;5094397;28;19912;-48
2021/08/03 01:10:30;;;;;;;;;;;;;;;32.85;26.86;99187.66;5103512;28;19947;-47
2021/08/03 01:13:01;;;;;;;;;;;;;;;33.18;26.61;99191.00;5102345;28;19916;-47
2021/08/03 01:15:44;;;;;;;;;;;;;;;33.62;26.13;99198.75;5093105;28;19912;-51
2021/08/03 01:18:10;;;;;;;;;;;;;;;34.14;25.22;99197.13;5104834;28;19926;-47
2021/08/03 01:20:39;;;;;;;;;;;;;;;33.80;25.27;99188.81;5100759;28;20006;-47
2021/08/03 01:23:30;;;;;;;;;;;;;;;33.56;25.48;99194.75;5095681;28;19912;-47
2021/08/03 01:26:13;;;;;;;;;;;;;;;33.52;25.41;99197.44;5070952;28;19937;-48
2021/08/03 01:28:39;;;;;;;;;;;;;;;34.22;24.67;99198.84;5098994;28;19944;-49
2021/08/03 01:31:06;;;;;;;;;;;;;;;33.94;24.89;99190.16;5103476;28;19947;-48
2021/08/03 01:33:32;;;;;;;;;;;;;;;33.57;25.53;99185.31;5092779;28;19912;-51
2021/08/03 01:35:57;;;;;;;;;;;;;;;33.79;25.37;99189.97;5104929;28;19912;-51
2021/08/03 01:38:23;;;;;;;;;;;;;;;34.22;24.80;99198.84;5098831;28;19923;-48
2021/08/03 01:40:49;;;;;;;;;;;;;;;33.78;25.37;99193.91;5099023;28;19912;-51
2021/08/03 01:43:14;;;;;;;;;;;;;;;32.94;26.69;99209.47;5096631;28;19991;-50
2021/08/03 01:45:39;;;;;;;;;;;;;;;33.43;26.28;99203.19;5109155;28;19913;-50
2021/08/03 01:48:05;;;;;;;;;;;;;;;33.83;25.75;99210.16;5099299;28;19911;-49
2021/08/03 01:50:31;;;;;;;;;;;;;;;33.46;26.08;99209.97;5087122;28;19912;-51
2021/08/03 01:52:56;;;;;;;;;;;;;;;33.19;26.72;99204.41;5107539;28;19912;-50
2021/08/03 01:55:21;;;;;;;;;;;;;;;33.37;26.47;99196.41;5098498;28;19920;-50
2021/08/03 01:57:47;;;;;;;;;;;;;;;33.59;25.63;99199.53;5110091;28;19912;-50
2021/08/03 02:00:12;;;;;;;;;;;;;;;33.33;26.04;99190.06;5101284;28;19928;-48
2021/08/03 02:02:37;;;;;;;;;;;;;;;32.85;26.82;99200.66;5104212;28;19912;-50
2021/08/03 02:05:03;;;;;;;;;;;;;;;33.02;26.73;99193.88;5108215;28;19916;-48
2021/08/03 02:07:28;;;;;;;;;;;;;;;33.43;26.25;99200.44;5097643;28;19920;-50
2021/08/03 02:09:53;;;;;;;;;;;;;;;33.34;26.42;99199.94;5109051;28;19931;-49
2021/08/03 02:12:19;;;;;;;;;;;;;;;32.67;27.42;99201.13;5100732;28;20343;-51
2021/08/03 02:14:47;;;;;;;;;;;;;;;32.50;28.06;99196.03;5103043;28;19912;-51
2021/08/03 02:17:19;;;;;;;;;;;;;;;32.93;27.31;99205.91;5108107;28;19916;-49
2021/08/03 02:19:44;;;;;;;;;;;;;;;32.95;27.71;99202.78;5097207;28;19939;-48
2021/08/03 02:22:10;;;;;;;;;;;;;;;32.55;28.32;99209.50;5107987;28;19916;-49
2021/08/03 02:24:35;;;;;;;;;;;;;;;32.59;28.63;99207.66;5103981;28;19912;-47
2021/08/03 02:27:00;;;;;;;;;;;;;;;33.08;27.46;99209.72;5099099;28;19916;-46
2021/08/03 02:29:26;;;;;;;;;;;;;;;33.53;26.51;99215.59;5110692;28;20285;-48
2021/08/03 02:31:52;;;;;;;;;;;;;;;33.02;26.90;99213.16;5097682;28;20014;-48
2021/08/03 02:34:39;;;;;;;;;;;;;;;32.54;27.39;99221.69;5105050;28;19912;-51
2021/08/03 02:37:09;;;;;;;;;;;;;;;32.59;27.08;99224.16;5106797;28;19919;-50
2021/08/03 02:39:34;;;;;;;;;;;;;;;32.68;26.81;99229.47;5096925;28;19956;-50
2021/08/03 02:41:59;;;;;;;;;;;;;;;32.57;27.40;99226.50;5107637;28;19919;-49
2021/08/03 02:44:25;;;;;;;;;;;;;;;31.96;28.31;99234.22;5110211;28;19960;-51
2021/08/03 02:46:54;;;;;;;;;;;;;;;31.71;28.86;99235.63;5101901;28;19912;-49
2021/08/03 02:49:28;;;;;;;;;;;;;;;31.47;29.24;99248.44;5109510;28;19918;-51
2021/08/03 02:51:53;;;;;;;;;;;;;;;30.96;30.07;99257.34;5081365;28;20401;-50
2021/08/03 02:54:18;;;;;;;;;;;;;;;31.17;29.92;99254.34;5087630;28;19912;-50
2021/08/03 02:56:44;;;;;;;;;;;;;;;31.13;30.42;99256.22;5103948;28;19919;-48
2021/08/03 02:59:10;;;;;;;;;;;;;;;31.40;30.31;99251.00;5098005;28;20383;-50
2021/08/03 03:01:36;;;;;;;;;;;;;;;31.74;29.82;99268.72;5109634;28;19994;-51
2021/08/03 03:04:14;;;;;;;;;;;;;;;30.50;32.48;99258.78;5098149;28;19911;-49
2021/08/03 03:06:40;;;;;;;;;;;;;;;31.21;32.00;99272.88;5101168;28;19951;-49
2021/08/03 03:09:05;;;;;;;;;;;;;;;31.26;32.47;99269.84;5106973;28;20387;-48
2021/08/03 03:11:31;;;;;;;;;;;;;;;31.16;32.25;99268.44;5094553;28;19916;-50
2021/08/03 03:13:57;;;;;;;;;;;;;;;30.83;33.07;99276.97;5108375;28;19923;-50
2021/08/03 03:16:22;;;;;;;;;;;;;;;30.81;33.81;99274.56;5101000;28;19920;-50
2021/08/03 03:18:47;;;;;;;;;;;;;;;31.25;33.25;99268.28;5101114;28;20348;-49
2021/08/03 03:21:16;;;;;;;;;;;;;;;31.33;32.93;99272.78;5107800;28;20395;-51
2021/08/03 03:23:41;;;;;;;;;;;;;;;30.48;34.12;99281.09;5094691;28;19988;-51
2021/08/03 03:26:07;;;;;;;;;;;;;;;30.48;34.86;99281.09;5105191;28;20437;-49
2021/08/03 03:28:32;;;;;;;;;;;;;;;30.74;34.75;99277.09;5101918;28;20018;-50
2021/08/03 03:30:58;;;;;;;;;;;;;;;30.86;34.45;99270.75;5098005;28;20298;-48
2021/08/03 03:33:23;;;;;;;;;;;;;;;30.09;35.79;99279.91;5108555;28;19915;-51
2021/08/03 03:35:49;;;;;;;;;;;;;;;30.27;35.06;99288.66;5094403;28;19934;-48
2021/08/03 03:38:15;;;;;;;;;;;;;;;30.79;33.38;99296.88;5104925;28;20006;-49
2021/08/03 03:40:41;;;;;;;;;;;;;;;31.40;32.13;99300.47;5103135;28;20006;-47
2021/08/03 03:43:06;;;;;;;;;;;;;;;31.17;32.20;99297.53;5104743;28;20359;-48
2021/08/03 03:45:31;;;;;;;;;;;;;;;31.11;32.19;99304.41;5110021;28;20360;-52
2021/08/03 03:48:00;;;;;;;;;;;;;;;31.38;31.75;99305.53;5095682;28;20060;-49
2021/08/03 03:50:28;;;;;;;;;;;;;;;31.81;31.32;99308.53;5102299;28;19980;-50
2021/08/03 03:52:54;;;;;;;;;;;;;;;31.48;32.33;99316.00;5103351;28;20267;-49
2021/08/03 03:55:20;;;;;;;;;;;;;;;31.25;32.88;99315.00;5094367;28;19998;-50
2021/08/03 03:57:45;;;;;;;;;;;;;;;31.58;32.36;99322.13;5093586;28;19965;-49
2021/08/03 04:00:11;;;;;;;;;;;;;;;32.03;31.60;99332.69;5104377;28;19922;-52
2021/08/03 04:02:36;;;;;;;;;;;;;;;32.27;31.04;99325.34;5101026;28;19969;-52
2021/08/03 04:05:02;;;;;;;;;;;;;;;31.47;31.63;99328.16;5090270;28;19920;-49
2021/08/03 04:07:30;;;;;;;;;;;;;;;31.55;30.21;99326.41;5105188;28;19922;-51
2021/08/03 04:10:08;;;;;;;;;;;;;;;32.00;29.22;99329.81;5095618;28;20254;-51
2021/08/03 04:12:33;;;;;;;;;;;;;;;32.34;28.34;99337.31;5102223;28;19951;-50
2021/08/03 04:14:59;;;;;;;;;;;;;;;31.62;29.32;99343.06;5077387;28;19978;-49
2021/08/03 04:17:24;;;;;;;;;;;;;;;32.01;28.81;99348.72;5088831;28;19973;-51
2021/08/03 04:19:49;;;;;;;;;;;;;;;31.42;30.21;99347.63;5107652;28;19971;-49
2021/08/03 04:22:14;;;;;;;;;;;;;;;31.64;30.09;99346.25;5094049;28;19919;-52
2021/08/03 04:24:40;;;;;;;;;;;;;;;31.56;30.65;99342.50;5095773;28;19919;-53
2021/08/03 04:27:05;;;;;;;;;;;;;;;31.82;30.15;99352.19;5091523;28;19969;-37
2021/08/03 04:29:30;;;;;;;;;;;;;;;31.86;30.11;99353.09;5108336;28;20392;-37
2021/08/03 04:31:56;;;;;;;;;;;;;;;31.58;30.90;99357.88;5095869;28;19915;-39
2021/08/03 04:34:21;;;;;;;;;;;;;;;32.05;30.66;99360.63;5103382;28;20403;-35
2021/08/03 04:36:46;;;;;;;;;;;;;;;31.81;31.20;99358.84;5089688;28;19995;-37
2021/08/03 04:39:12;;;;;;;;;;;;;;;31.67;31.94;99364.78;5105230;28;20314;-35
2021/08/03 04:41:40;;;;;;;;;;;;;;;32.20;31.65;99364.53;5092358;28;19912;-37
2021/08/03 04:44:05;;;;;;;;;;;;;;;32.19;31.64;99364.88;5099783;28;19920;-37
2021/08/03 04:46:31;;;;;;;;;;;;;;;31.91;32.11;99368.50;5099835;28;19912;-37
2021/08/03 04:48:56;;;;;;;;;;;;;;;32.23;31.26;99377.56;5101906;28;19918;-37
2021/08/03 04:51:21;;;;;;;;;;;;;;;32.33;31.29;99377.00;5092720;28;20014;-37
2021/08/03 04:53:47;;;;;;;;;;;;;;;32.64;31.11;99375.34;5105784;28;20376;-37
2021/08/03 04:56:12;;;;;;;;;;;;;;;32.69;30.51;99379.75;5090693;28;19916;-37
2021/08/03 04:58:41;;;;;;;;;;;;;;;33.48;29.57;99384.09;5100893;28;19915;-37
2021/08/03 05:01:06;;;;;;;;;;;;;;;33.53;29.39;99396.78;5096690;28;20327;-38
2021/08/03 05:03:32;;;;;;;;;;;;;;;33.33;29.65;99390.53;5107342;28;20385;-37
2021/08/03 05:05:57;;;;;;;;;;;;;;;32.99;29.99;99396.53;5095210;28;19919;-37
2021/08/03 05:08:22;;;;;;;;;;;;;;;33.23;29.64;99394.69;5102292;28;19958;-37
2021/08/03 05:10:47;;;;;;;;;;;;;;;33.51;29.54;99399.94;5102235;28;19915;-38
2021/08/03 05:13:13;;;;;;;;;;;;;;;33.49;29.05;99411.31;5110861;28;20368;-37
2021/08/03 05:15:38;;;;;;;;;;;;;;;33.83;28.61;99414.31;5092346;28;19912;-37
2021/08/03 05:18:03;;;;;;;;;;;;;;;34.12;28.53;99413.97;5096198;28;19916;-37
2021/08/03 05:20:29;;;;;;;;;;;;;;;33.35;29.39;99421.28;5100995;28;19934;-37
2021/08/03 05:22:54;;;;;;;;;;;;;;;34.17;28.38;99422.75;5103340;28;19912;-37
2021/08/03 05:25:19;;;;;;;;;;;;;;;34.13;28.18;99435.69;5094395;28;19970;-37
2021/08/03 05:27:44;;;;;;;;;;;;;;;34.22;28.00;99432.72;5107219;28;19972;-37
2021/08/03 05:30:10;;;;;;;;;;;;;;;34.25;27.95;99421.72;5090361;28;20000;-37
2021/08/03 05:32:35;;;;;;;;;;;;;;;34.06;28.26;99427.28;5100307;28;20019;-37
2021/08/03 05:35:01;;;;;;;;;;;;;;;34.14;28.01;99429.00;5096547;28;19912;-37
2021/08/03 05:37:26;;;;;;;;;;;;;;;34.63;27.54;99424.59;5107084;28;20316;-38
2021/08/03 05:39:51;;;;;;;;;;;;;;;35.34;26.33;99427.53;5094409;28;19920;-38
2021/08/03 05:42:17;;;;;;;;;;;;;;;35.77;25.79;99427.97;5110233;28;19915;-37
2021/08/03 05:44:42;;;;;;;;;;;;;;;35.60;25.66;99428.56;5101233;28;19981;-37
2021/08/03 05:47:07;;;;;;;;;;;;;;;36.39;24.95;99435.63;5095767;28;20005;-37
2021/08/03 05:49:32;;;;;;;;;;;;;;;36.00;25.12;99432.50;5106800;28;20003;-37
2021/08/03 05:52:00;;;;;;;;;;;;;;;36.05;25.15;99437.72;5094839;28;19912;-37
2021/08/03 05:54:25;;;;;;;;;;;;;;;36.17;25.24;99442.19;5101402;28;19919;-37
2021/08/03 05:56:50;;;;;;;;;;;;;;;35.71;26.09;99432.28;5102607;28;20084;-37
2021/08/03 05:59:16;;;;;;;;;;;;;;;35.65;26.28;99433.78;5094677;28;20390;-37
2021/08/03 06:01:41;;;;;;;;;;;;;;;35.71;26.28;99426.72;5107054;28;19915;-37
2021/08/03 06:04:06;;;;;;;;;;;;;;;35.98;25.30;99440.41;5096085;28;19912;-37
2021/08/03 06:06:37;;;;;;;;;;;;;;;35.85;25.56;99433.56;5100674;28;20002;-37
2021/08/03 06:09:02;;;;;;;;;;;;;;;36.43;25.00;99443.94;5102427;28;19968;-37
2021/08/03 06:11:27;;;;;;;;;;;;;;;36.59;24.58;99441.69;5093252;28;20066;-37
2021/08/03 06:13:53;;;;;;;;;;;;;;;36.46;25.04;99434.06;5108711;28;19916;-38
2021/08/03 06:16:19;;;;;;;;;;;;;;;36.67;24.66;99439.78;5102318;28;20355;-38
2021/08/03 06:18:45;;;;;;;;;;;;;;;36.50;24.96;99440.41;5101325;28;20318;-38
2021/08/03 06:21:11;;;;;;;;;;;;;;;35.98;26.21;99437.66;5095212;28;19997;-38
2021/08/03 06:23:36;;;;;;;;;;;;;;;35.84;26.44;99434.78;5105125;28;19959;-37
2021/08/03 06:26:01;;;;;;;;;;;;;;;36.38;25.51;99427.69;5095281;28;20386;-37
2021/08/03 06:28:27;;;;;;;;;;;;;;;36.11;26.05;99429.84;5101272;28;19921;-37
2021/08/03 06:30:52;;;;;;;;;;;;;;;36.51;26.07;99428.94;5090285;28;19998;-37
2021/08/03 06:33:18;;;;;;;;;;;;;;;36.32;26.51;99437.53;5109269;28;20018;-37
2021/08/03 06:35:46;;;;;;;;;;;;;;;36.50;26.49;99444.00;5096637;28;19919;-37
2021/08/03 06:38:12;;;;;;;;;;;;;;;36.89;26.16;99442.66;5106351;28;19919;-37
2021/08/03 06:40:38;;;;;;;;;;;;;;;37.05;25.63;99436.75;5103436;28;19927;-37
2021/08/03 06:43:10;;;;;;;;;;;;;;;36.93;25.70;99444.25;5097786;28;19929;-38
2021/08/03 06:45:35;;;;;;;;;;;;;;;37.33;25.31;99453.53;5093298;28;19958;-37
2021/08/03 06:48:04;;;;;;;;;;;;;;;36.76;25.96;99444.97;5112082;28;19951;-37
2021/08/03 06:50:33;;;;;;;;;;;;;;;37.00;25.63;99435.19;5103844;28;20407;-38
2021/08/03 06:52:59;;;;;;;;;;;;;;;37.47;25.42;99444.47;5106391;28;19912;-37
2021/08/03 06:55:27;;;;;;;;;;;;;;;37.83;24.91;99438.19;5096403;28;19919;-38
2021/08/03 06:57:53;;;;;;;;;;;;;;;37.33;25.60;99450.75;5109120;28;19912;-37
2021/08/03 07:00:21;;;;;;;;;;;;;;;36.55;26.88;99443.63;5099354;28;20292;-37
2021/08/03 07:02:48;;;;;;;;;;;;;;;36.92;26.34;99451.00;5113217;28;19934;-36
2021/08/03 07:05:17;;;;;;;;;;;;;;;37.45;26.12;99454.34;5113259;28;19916;-38
2021/08/03 07:07:43;;;;;;;;;;;;;;;37.85;25.62;99452.47;5093431;28;20325;-38
2021/08/03 07:10:08;;;;;;;;;;;;;;;37.64;26.07;99451.28;5098000;28;19918;-38
2021/08/03 07:12:33;;;;;;;;;;;;;;;37.79;25.59;99465.16;5102809;28;19918;-38
2021/08/03 07:14:59;;;;;;;;;;;;;;;37.55;25.86;99453.59;5105826;28;19923;-37
2021/08/03 07:17:29;;;;;;;;;;;;;;;38.17;25.05;99460.03;5112717;28;20364;-37
2021/08/03 07:19:54;;;;;;;;;;;;;;;39.11;24.09;99453.13;5096198;28;19967;-38
2021/08/03 07:22:19;;;;;;;;;;;;;;;39.59;22.75;99449.69;5103574;28;19947;-37
2021/08/03 07:24:48;;;;;;;;;;;;;;;38.50;24.06;99459.63;5102553;28;19958;-38
2021/08/03 07:27:13;;;;;;;;;;;;;;;38.15;24.46;99460.44;5097118;28;19916;-38
2021/08/03 07:29:38;;;;;;;;;;;;;;;38.04;25.04;99451.28;5108950;28;20349;-38
2021/08/03 07:32:04;;;;;;;;;;;;;;;37.83;24.77;99454.84;5097752;28;19947;-37
2021/08/03 07:34:29;;;;;;;;;;;;;;;38.80;23.76;99452.00;5103137;28;19916;-37
2021/08/03 07:36:54;;;;;;;;;;;;;;;38.32;24.52;99456.06;5104837;28;19918;-38
2021/08/03 07:39:20;;;;;;;;;;;;;;;37.75;25.04;99449.28;5112379;28;20352;-38
2021/08/03 07:41:45;;;;;;;;;;;;;;;38.07;24.50;99459.66;5092122;28;19919;-38
2021/08/03 07:44:10;;;;;;;;;;;;;;;38.94;23.63;99457.53;5108172;28;19919;-38
2021/08/03 07:46:35;;;;;;;;;;;;;;;39.37;22.81;99459.34;5112397;28;19912;-38
2021/08/03 07:49:01;;;;;;;;;;;;;;;38.97;23.96;99464.28;5096790;28;19916;-38
2021/08/03 07:51:27;;;;;;;;;;;;;;;39.68;22.62;99454.81;5108638;28;19992;-38
2021/08/03 07:53:52;;;;;;;;;;;;;;;39.61;23.16;99464.00;5095538;28;19915;-38
2021/08/03 07:56:18;;;;;;;;;;;;;;;38.78;24.15;99465.53;5104297;28;19922;-38
2021/08/03 07:58:43;;;;;;;;;;;;;;;39.11;23.58;99467.03;5101424;28;19920;-38
2021/08/03 08:01:08;;;;;;;;;;;;;;;38.78;23.83;99463.53;5097037;28;20370;-38
2021/08/03 08:03:34;;;;;;;;;;;;;;;39.03;23.68;99454.34;5108327;28;19911;-38
2021/08/03 08:06:00;;;;;;;;;;;;;;;39.26;23.20;99460.19;5096785;28;20234;-38
2021/08/03 08:08:25;;;;;;;;;;;;;;;40.11;22.83;99459.28;5102874;28;20367;-38
2021/08/03 08:10:50;;;;;;;;;;;;;;;40.94;22.08;99460.06;5103647;28;20372;-38
2021/08/03 08:13:15;;;;;;;;;;;;;;;40.17;22.26;99454.84;5095798;28;19977;-38
2021/08/03 08:15:41;;;;;;;;;;;;;;;40.41;21.71;99458.63;5108101;28;20403;-38
2021/08/03 08:18:08;;;;;;;;;;;;;;;40.34;21.75;99456.69;5097765;28;20087;-38
2021/08/03 08:20:34;;;;;;;;;;;;;;;40.04;22.11;99460.13;5101629;28;19935;-38
2021/08/03 08:22:59;;;;;;;;;;;;;;;40.03;22.59;99461.34;5104674;28;19915;-38
2021/08/03 08:25:25;;;;;;;;;;;;;;;40.24;21.84;99455.56;5094112;28;19934;-38
2021/08/03 08:27:50;;;;;;;;;;;;;;;40.07;22.81;99453.72;5095055;28;20375;-38
2021/08/03 08:30:15;;;;;;;;;;;;;;;40.53;21.65;99446.94;5103720;28;20323;-38
2021/08/03 08:32:42;;;;;;;;;;;;;;;40.67;22.23;99451.59;5101680;28;20002;-38
2021/08/03 08:35:07;;;;;;;;;;;;;;;40.79;21.96;99441.91;5096620;28;19916;-39
2021/08/03 08:37:33;;;;;;;;;;;;;;;40.72;21.74;99442.75;5107583;28;19984;-38
2021/08/03 08:40:00;;;;;;;;;;;;;;;40.74;21.48;99445.91;5095676;28;19988;-38
2021/08/03 08:42:25;;;;;;;;;;;;;;;40.34;21.33;99448.34;5103462;28;19912;-38
2021/08/03 08:44:50;;;;;;;;;;;;;;;39.83;22.18;99447.94;5111080;28;19930;-39
2021/08/03 08:47:19;;;;;;;;;;;;;;;39.64;22.63;99440.91;5095409;28;20356;-39
2021/08/03 08:49:44;;;;;;;;;;;;;;;39.81;22.69;99425.28;5107084;28;20447;-37
2021/08/03 08:52:11;;;;;;;;;;;;;;;39.96;21.86;99425.97;5089481;28;19919;-37
2021/08/03 08:54:36;;;;;;;;;;;;;;;40.47;21.62;99443.03;5100345;28;19912;-37
2021/08/03 08:57:01;;;;;;;;;;;;;;;40.65;21.57;99448.41;5095893;28;19919;-38
2021/08/03 08:59:27;;;;;;;;;;;;;;;40.92;21.11;99442.13;5091264;28;19916;-39
2021/08/03 09:01:52;;;;;;;;;;;;;;;40.91;21.16;99441.34;5106334;27;19919;-39
2021/08/03 09:04:17;;;;;;;;;;;;;;;41.55;19.66;99444.53;5098254;28;19935;-37
2021/08/03 09:06:42;;;;;;;;;;;;;;;41.06;20.07;99433.59;5099409;28;20364;-38
2021/08/03 09:09:11;;;;;;;;;;;;;;;41.31;19.99;99421.34;5105431;28;19963;-38
2021/08/03 09:11:42;;;;;;;;;;;;;;;41.34;18.97;99434.47;5093845;28;19922;-39
2021/08/03 09:14:08;;;;;;;;;;;;;;;41.56;18.84;99420.97;5104350;28;19912;-39
2021/08/03 09:16:45;;;;;;;;;;;;;;;41.59;18.83;99425.72;5100237;28;19930;-39
2021/08/03 09:19:27;;;;;;;;;;;;;;;41.16;18.38;99420.72;5095195;28;20066;-39
2021/08/03 09:22:08;;;;;;;;;;;;;;;40.83;19.07;99423.94;5078500;28;19943;-38
2021/08/03 09:24:35;;;;;;;;;;;;;;;40.93;18.80;99424.22;5101061;28;20447;-41
2021/08/03 09:27:00;;;;;;;;;;;;;;;41.42;17.64;99416.38;5103987;28;19922;-38
2021/08/03 09:29:25;;;;;;;;;;;;;;;41.31;16.78;99415.75;5110264;28;19912;-38
2021/08/03 09:31:51;;;;;;;;;;;;;;;41.65;16.12;99414.88;5094133;28;20386;-38
2021/08/03 09:34:16;;;;;;;;;;;;;;;41.96;15.96;99409.97;5102773;28;19920;-39
2021/08/03 09:36:42;;;;;;;;;;;;;;;42.06;15.21;99409.03;5101420;28;20307;-37
2021/08/03 09:39:07;;;;;;;;;;;;;;;42.21;15.22;99408.75;5095664;28;19922;-38
2021/08/03 09:41:44;;;;;;;;;;;;;;;41.60;15.29;99407.72;5091813;28;19927;-38
2021/08/03 09:44:13;;;;;;;;;;;;;;;41.83;14.91;99411.78;5101036;28;19915;-38
2021/08/03 09:46:38;;;;;;;;;;;;;;;41.78;14.75;99405.47;5099907;28;20006;-38
2021/08/03 09:49:03;;;;;;;;;;;;;;;41.64;14.78;99405.69;5104385;28;20368;-38
2021/08/03 09:51:29;;;;;;;;;;;;;;;42.52;14.03;99406.59;5093431;28;19919;-38
2021/08/03 09:53:54;;;;;;;;;;;;;;;42.84;13.29;99397.56;5105809;28;20250;-38
2021/08/03 09:56:39;;;;;;;;;;;;;;;42.02;14.37;99397.06;5098352;28;19911;-38
2021/08/03 09:59:05;;;;;;;;;;;;;;;42.53;13.92;99399.78;5095864;28;19920;-38
2021/08/03 10:01:31;;;;;;;;;;;;;;;42.54;13.38;99399.34;5106624;28;19922;-39
2021/08/03 10:03:58;;;;;;;;;;;;;;;42.68;13.52;99395.47;5094760;28;19912;-39
2021/08/03 10:06:23;;;;;;;;;;;;;;;42.92;12.99;99396.19;5103025;28;19920;-38
2021/08/03 10:08:49;;;;;;;;;;;;;;;42.63;13.05;99384.00;5105797;28;20283;-39
2021/08/03 10:11:14;;;;;;;;;;;;;;;42.21;12.06;99387.19;5114179;28;19912;-39
2021/08/03 10:13:40;;;;;;;;;;;;;;;42.02;11.80;99396.28;5097352;28;19912;-38
2021/08/03 10:16:05;;;;;;;;;;;;;;;42.08;11.15;99383.44;5108733;28;20016;-38
2021/08/03 10:18:31;;;;;;;;;;;;;;;42.12;11.59;99389.78;5101824;28;20272;-38
2021/08/03 10:20:56;;;;;;;;;;;;;;;42.30;12.04;99387.41;5112737;28;19924;-38
2021/08/03 10:23:22;;;;;;;;;;;;;;;41.93;13.07;99382.91;5097169;28;19919;-38
2021/08/03 10:25:47;;;;;;;;;;;;;;;42.38;12.52;99386.06;5108749;28;19947;-38
2021/08/03 10:28:19;;;;;;;;;;;;;;;42.40;12.41;99388.41;5100450;28;19968;-38
2021/08/03 10:30:45;;;;;;;;;;;;;;;42.56;12.13;99376.56;5113948;28;20362;-38
2021/08/03 10:33:10;;;;;;;;;;;;;;;42.04;12.83;99374.31;5098385;28;19912;-38
2021/08/03 10:35:53;;;;;;;;;;;;;;;42.80;12.44;99376.47;5095153;28;19922;-38
2021/08/03 10:38:32;;;;;;;;;;;;;;;43.44;11.72;99377.84;5105893;28;20397;-39
2021/08/03 10:41:00;;;;;;;;;;;;;;;43.04;12.21;99374.38;5106640;28;20009;-38
2021/08/03 10:43:35;;;;;;;;;;;;;;;42.71;12.52;99369.44;5106116;28;19923;-39
2021/08/03 10:46:06;;;;;;;;;;;;;;;42.75;12.38;99367.38;5108184;28;19916;-39
2021/08/03 10:48:37;;;;;;;;;;;;;;;42.80;12.04;99357.66;5102643;28;19968;-38
2021/08/03 10:51:15;;;;;;;;;;;;;;;42.94;12.18;99365.78;5099151;27;19912;-38
2021/08/03 10:53:59;;;;;;;;;;;;;;;43.20;11.71;99362.41;5109623;28;19912;-38
2021/08/03 10:56:24;;;;;;;;;;;;;;;42.79;11.99;99364.50;5101580;28;19942;-38
2021/08/03 10:58:49;;;;;;;;;;;;;;;42.56;12.07;99365.38;5100756;28;20380;-39
2021/08/03 11:01:33;;;;;;;;;;;;;;;42.89;12.40;99368.31;5092595;28;19916;-38
2021/08/03 11:03:58;;;;;;;;;;;;;;;41.99;12.60;99358.84;5082725;28;19912;-38
2021/08/03 11:06:23;;;;;;;;;;;;;;;42.92;12.30;99368.22;5104186;28;19913;-38
2021/08/03 11:08:49;;;;;;;;;;;;;;;43.42;11.88;99359.94;5104754;28;20014;-38
2021/08/03 11:11:29;;;;;;;;;;;;;;;43.89;11.17;99353.97;5097165;28;19912;-37
2021/08/03 11:13:56;;;;;;;;;;;;;;;43.15;11.88;99358.91;5072426;28;19935;-38
2021/08/03 11:16:21;;;;;;;;;;;;;;;43.84;11.47;99357.28;5089256;28;19954;-38
2021/08/03 11:18:47;;;;;;;;;;;;;;;43.61;11.86;99358.25;5100701;28;20371;-37
2021/08/03 11:21:13;;;;;;;;;;;;;;;44.15;11.05;99348.50;5107937;28;19923;-37
2021/08/03 11:23:57;;;;;;;;;;;;;;;43.99;11.55;99347.28;5096058;28;19912;-38
2021/08/03 11:26:22;;;;;;;;;;;;;;;43.29;12.07;99354.22;5104570;28;20006;-38
2021/08/03 11:28:58;;;;;;;;;;;;;;;43.39;12.19;99350.38;5104488;28;19985;-38
2021/08/03 11:31:38;;;;;;;;;;;;;;;44.20;11.75;99342.34;5095921;28;19916;-38
2021/08/03 11:34:04;;;;;;;;;;;;;;;44.11;11.65;99343.75;5106744;28;19923;-38
2021/08/03 11:36:29;;;;;;;;;;;;;;;43.08;12.02;99344.28;5101900;28;19912;-37
2021/08/03 11:38:55;;;;;;;;;;;;;;;43.49;12.31;99338.13;5099686;28;19965;-38
2021/08/03 11:41:20;;;;;;;;;;;;;;;43.65;12.12;99334.53;5109064;28;19919;-37
2021/08/03 11:43:45;;;;;;;;;;;;;;;42.76;12.99;99324.19;5103900;28;19941;-38
2021/08/03 11:46:11;;;;;;;;;;;;;;;42.38;13.38;99310.59;5106267;28;19919;-39
2021/08/03 11:48:36;;;;;;;;;;;;;;;42.62;12.92;99327.28;5102644;28;19975;-38
2021/08/03 11:51:02;;;;;;;;;;;;;;;42.38;12.84;99324.56;5098431;28;19912;-39
2021/08/03 11:53:28;;;;;;;;;;;;;;;43.10;12.23;99325.06;5108767;28;19958;-38
2021/08/03 11:55:54;;;;;;;;;;;;;;;42.82;12.76;99318.06;5096331;28;19978;-38
2021/08/03 11:58:20;;;;;;;;;;;;;;;43.51;12.86;99313.28;5112421;28;19912;-37
2021/08/03 12:00:45;;;;;;;;;;;;;;;43.60;12.65;99304.25;5100568;28;20077;-38
2021/08/03 12:03:10;;;;;;;;;;;;;;;43.82;12.02;99304.50;5106959;28;20329;-38
2021/08/03 12:05:37;;;;;;;;;;;;;;;44.58;11.60;99303.19;5095007;28;20355;-37
2021/08/03 12:08:03;;;;;;;;;;;;;;;44.43;12.02;99302.03;5106270;28;19919;-38
2021/08/03 12:10:30;;;;;;;;;;;;;;;43.52;12.33;99302.84;5100774;28;19911;-37
2021/08/03 12:12:55;;;;;;;;;;;;;;;43.76;12.10;99297.88;5098783;28;19912;-37
2021/08/03 12:15:21;;;;;;;;;;;;;;;43.80;11.75;99276.16;5106829;28;19911;-38
2021/08/03 12:17:46;;;;;;;;;;;;;;;44.30;12.14;99307.59;5095125;28;19923;-38
2021/08/03 12:20:31;;;;;;;;;;;;;;;44.11;11.81;99293.31;5104743;28;19931;-37
2021/08/03 12:23:07;;;;;;;;;;;;;;;43.41;11.24;99293.94;5104962;28;20360;-38
2021/08/03 12:25:45;;;;;;;;;;;;;;;43.12;11.69;99303.78;5093622;28;19989;-37
2021/08/03 12:28:10;;;;;;;;;;;;;;;43.04;11.74;99299.59;5104793;28;20303;-37
2021/08/03 12:30:37;;;;;;;;;;;;;;;43.05;11.90;99292.78;5099697;28;20418;-38
2021/08/03 12:33:03;;;;;;;;;;;;;;;42.48;12.06;99303.22;5097383;28;19962;-38
2021/08/03 12:35:28;;;;;;;;;;;;;;;42.29;12.25;99292.81;5108162;28;19939;-38
2021/08/03 12:38:09;;;;;;;;;;;;;;;42.66;12.11;99299.25;5095541;28;19916;-38
2021/08/03 12:40:34;;;;;;;;;;;;;;;42.82;12.15;99296.47;5100892;28;19916;-38
2021/08/03 12:43:00;;;;;;;;;;;;;;;43.72;11.89;99297.97;5105207;28;20011;-38
2021/08/03 12:45:25;;;;;;;;;;;;;;;43.55;11.33;99296.38;5094276;28;19912;-38
2021/08/03 12:47:54;;;;;;;;;;;;;;;42.83;11.52;99302.88;5107355;28;19920;-38